Time;durP1;ratioP1;P1;durP2;ratioP2;P2;SDS_P1;SDS_P2;PMS_P1;PMS_P2;Temp;Humidity;BMP_temperature;BMP_pressure;BME280_temperature;BME280_humidity;BME280_pressure;Samples;Min_cycle;Max_cycle;Signal;HPM_P1;HPM_P2
2021/08/22 00:01:12;;;;;;;10.67;7.03;;;17.80;97.30;;;;;;4996843;28;20269;-81
2021/08/22 00:03:37;;;;;;;11.37;7.00;;;17.80;97.30;;;;;;4997580;28;20659;-81
2021/08/22 00:06:03;;;;;;;10.27;7.13;;;17.80;97.30;;;;;;4997555;28;20190;-81
2021/08/22 00:08:28;;;;;;;12.33;6.60;;;17.80;97.30;;;;;;4998889;28;20197;-82
2021/08/22 00:10:54;;;;;;;14.83;6.53;;;17.80;97.30;;;;;;4997247;28;20269;-81
2021/08/22 00:13:21;;;;;;;14.07;6.67;;;17.80;97.30;;;;;;4996804;28;20178;-81
2021/08/22 00:15:47;;;;;;;12.07;6.63;;;17.70;97.30;;;;;;4988595;23;20262;-74
2021/08/22 00:18:12;;;;;;;14.77;7.43;;;17.70;97.30;;;;;;4978728;28;20467;-74
2021/08/22 00:20:39;;;;;;;12.00;6.63;;;17.70;97.30;;;;;;4994039;28;20182;-74
2021/08/22 00:23:04;;;;;;;14.40;7.37;;;17.60;97.30;;;;;;4993670;28;20174;-74
2021/08/22 00:25:30;;;;;;;11.20;7.33;;;17.50;97.30;;;;;;4993836;28;20498;-74
2021/08/22 00:27:55;;;;;;;12.90;7.17;;;17.50;97.30;;;;;;4992413;28;20178;-74
2021/08/22 00:30:21;;;;;;;15.10;7.23;;;17.40;97.30;;;;;;4992457;28;20264;-74
2021/08/22 00:32:47;;;;;;;12.53;7.13;;;17.40;97.30;;;;;;4992381;28;20268;-74
2021/08/22 00:35:12;;;;;;;12.00;6.83;;;17.40;97.30;;;;;;4992302;28;20424;-74
2021/08/22 00:37:39;;;;;;;11.03;7.07;;;17.30;97.30;;;;;;4993464;28;20189;-74
2021/08/22 00:40:05;;;;;;;10.33;7.03;;;17.30;97.30;;;;;;4991953;28;20689;-74
2021/08/22 00:42:32;;;;;;;10.53;6.40;;;17.20;97.30;;;;;;4992276;28;20531;-74
2021/08/22 00:45:02;;;;;;;10.83;6.67;;;17.20;97.30;;;;;;4992139;28;20908;-75
2021/08/22 00:47:29;;;;;;;11.50;7.10;;;17.20;97.30;;;;;;4992216;28;20981;-74
2021/08/22 00:49:55;;;;;;;12.10;6.43;;;17.20;97.30;;;;;;4991786;28;21205;-74
2021/08/22 00:52:20;;;;;;;12.63;7.00;;;17.20;97.30;;;;;;4993299;28;20420;-74
2021/08/22 00:54:46;;;;;;;10.40;6.63;;;17.20;97.30;;;;;;4991908;28;20807;-74
2021/08/22 00:57:14;;;;;;;10.27;6.83;;;17.20;97.30;;;;;;4993097;28;20182;-74
2021/08/22 00:59:40;;;;;;;11.77;7.07;;;17.20;97.30;;;;;;4993386;28;20678;-74
2021/08/22 01:02:12;;;;;;;10.67;6.63;;;17.20;97.30;;;;;;4993319;28;20412;-74
2021/08/22 01:04:48;;;;;;;8.97;6.37;;;17.10;97.30;;;;;;4993670;28;20748;-74
2021/08/22 01:07:20;;;;;;;12.70;7.90;;;17.10;97.30;;;;;;4991936;28;20463;-74
2021/08/22 01:09:49;;;;;;;11.20;7.00;;;17.10;97.30;;;;;;4993163;28;20468;-74
2021/08/22 01:12:44;;;;;;;9.87;6.57;;;17.10;97.30;;;;;;4993525;28;20417;-74
2021/08/22 01:15:13;;;;;;;13.70;7.40;;;17.00;97.30;;;;;;4991728;28;20825;-75
2021/08/22 01:17:51;;;;;;;10.27;7.00;;;17.00;97.30;;;;;;4991764;28;20811;-74
2021/08/22 01:20:56;;;;;;;12.60;6.83;;;17.00;97.30;;;;;;4991304;28;20448;-74
2021/08/22 01:23:23;;;;;;;15.43;7.80;;;17.00;97.30;;;;;;4988215;28;20474;-74
2021/08/22 01:25:49;;;;;;;11.10;6.87;;;17.00;97.30;;;;;;4991618;28;20563;-74
2021/08/22 01:28:15;;;;;;;11.00;7.23;;;17.00;97.30;;;;;;4991348;28;20522;-74
2021/08/22 01:30:48;;;;;;;11.47;7.40;;;17.00;97.30;;;;;;4991468;28;20523;-74
2021/08/22 01:33:17;;;;;;;16.77;9.00;;;17.00;97.30;;;;;;4992676;28;20178;-74
2021/08/22 01:35:44;;;;;;;15.77;9.00;;;17.00;97.30;;;;;;4992821;28;20505;-74
2021/08/22 01:38:10;;;;;;;13.20;8.37;;;17.00;97.30;;;;;;4990881;28;20575;-74
2021/08/22 01:40:37;;;;;;;15.60;8.10;;;17.00;97.30;;;;;;4991127;28;20425;-74
2021/08/22 01:43:04;;;;;;;14.80;7.23;;;17.00;97.30;;;;;;4992699;28;20417;-74
2021/08/22 01:45:31;;;;;;;13.40;7.67;;;17.00;97.30;;;;;;4992332;28;20413;-74
2021/08/22 01:47:57;;;;;;;18.77;8.03;;;17.00;97.30;;;;;;4987825;28;20430;-74
2021/08/22 01:50:23;;;;;;;13.73;8.13;;;17.10;97.30;;;;;;4971431;28;20469;-74
2021/08/22 01:52:56;;;;;;;15.93;7.90;;;17.10;97.30;;;;;;4973089;28;20446;-74
2021/08/22 01:55:21;;;;;;;19.93;8.57;;;17.10;97.30;;;;;;4972571;28;20418;-74
2021/08/22 01:57:47;;;;;;;15.60;8.13;;;17.10;97.30;;;;;;4972764;28;20915;-74
2021/08/22 02:00:13;;;;;;;13.53;8.20;;;17.10;97.30;;;;;;5004272;28;20183;-74
2021/08/22 02:02:52;;;;;;;12.10;7.60;;;17.20;97.30;;;;;;4972556;28;20186;-74
2021/08/22 02:05:18;;;;;;;14.90;7.57;;;17.20;97.30;;;;;;4971624;28;20986;-74
2021/08/22 02:07:44;;;;;;;12.23;7.60;;;17.20;97.30;;;;;;4972664;28;20413;-74
2021/08/22 02:10:14;;;;;;;13.33;7.87;;;17.20;97.30;;;;;;4972945;28;20818;-75
2021/08/22 02:12:40;;;;;;;12.33;7.90;;;17.30;97.30;;;;;;4972705;28;20175;-74
2021/08/22 02:15:10;;;;;;;11.20;7.70;;;17.30;97.30;;;;;;5003551;28;20846;-74
2021/08/22 02:17:59;;;;;;;14.77;7.10;;;17.30;97.30;;;;;;4971319;28;20464;-74
2021/08/22 02:20:25;;;;;;;12.03;7.30;;;17.30;97.30;;;;;;4972407;28;20906;-75
2021/08/22 02:22:53;;;;;;;12.63;7.87;;;17.30;97.30;;;;;;4972431;28;20422;-75
2021/08/22 02:25:20;;;;;;;12.97;7.40;;;17.20;97.30;;;;;;4970995;28;20462;-74
2021/08/22 02:27:46;;;;;;;15.13;7.93;;;17.20;97.30;;;;;;4971330;28;20514;-74
2021/08/22 02:30:13;;;;;;;11.17;7.93;;;17.20;97.30;;;;;;4972206;28;20515;-75
2021/08/22 02:32:39;;;;;;;13.20;7.30;;;17.10;97.30;;;;;;4970952;28;20465;-74
2021/08/22 02:35:05;;;;;;;13.57;8.07;;;17.10;97.30;;;;;;4971802;28;20438;-74
2021/08/22 02:37:31;;;;;;;11.10;7.47;;;17.10;97.30;;;;;;4971034;28;20185;-74
2021/08/22 02:39:57;;;;;;;12.63;8.30;;;17.10;97.30;;;;;;5003549;28;20449;-74
2021/08/22 02:42:23;;;;;;;11.90;7.30;;;17.10;97.30;;;;;;4972148;28;20530;-69
2021/08/22 02:44:49;;;;;;;17.67;8.13;;;17.10;97.30;;;;;;4971892;28;20422;-69
2021/08/22 02:47:14;;;;;;;17.37;8.33;;;17.10;97.30;;;;;;4970838;28;20440;-69
2021/08/22 02:49:41;;;;;;;12.63;8.17;;;17.10;97.30;;;;;;4988840;28;20239;-69
2021/08/22 02:52:07;;;;;;;12.63;7.90;;;17.20;97.30;;;;;;4991466;28;20178;-69
2021/08/22 02:54:32;;;;;;;15.43;8.00;;;17.20;97.30;;;;;;4990443;28;20421;-69
2021/08/22 02:56:58;;;;;;;11.77;7.93;;;17.20;97.30;;;;;;4991537;28;20257;-69
2021/08/22 02:59:24;;;;;;;12.73;8.20;;;17.20;97.30;;;;;;4991027;28;20214;-69
2021/08/22 03:01:49;;;;;;;14.37;7.27;;;17.20;97.30;;;;;;4990033;28;20192;-69
2021/08/22 03:04:15;;;;;;;14.40;7.40;;;17.20;97.30;;;;;;4991214;28;20722;-69
2021/08/22 03:06:40;;;;;;;11.97;8.10;;;17.20;97.30;;;;;;4991371;28;20702;-69
2021/08/22 03:09:06;;;;;;;12.50;7.67;;;17.20;97.30;;;;;;4990065;28;20289;-68
2021/08/22 03:11:32;;;;;;;14.17;7.80;;;17.20;97.30;;;;;;4990055;28;20549;-70
2021/08/22 03:13:58;;;;;;;19.17;8.40;;;17.20;97.30;;;;;;4989782;28;20565;-69
2021/08/22 03:16:24;;;;;;;16.13;9.00;;;17.20;97.30;;;;;;4989870;28;20325;-69
2021/08/22 03:18:49;;;;;;;15.07;8.23;;;17.20;97.30;;;;;;4991310;28;20508;-69
2021/08/22 03:21:15;;;;;;;12.50;7.73;;;17.20;97.30;;;;;;4989724;28;20202;-69
2021/08/22 03:23:41;;;;;;;11.77;8.07;;;17.20;97.30;;;;;;4991260;28;20178;-69
2021/08/22 03:26:06;;;;;;;15.47;8.43;;;17.20;97.30;;;;;;4991261;28;20174;-69
2021/08/22 03:28:32;;;;;;;10.97;7.60;;;17.20;97.30;;;;;;4990940;28;20221;-69
2021/08/22 03:30:58;;;;;;;12.63;8.00;;;17.10;97.30;;;;;;4989401;28;20472;-69
2021/08/22 03:33:23;;;;;;;15.40;8.53;;;17.10;97.30;;;;;;4991229;28;20224;-69
2021/08/22 03:35:49;;;;;;;11.30;7.13;;;17.00;97.30;;;;;;4989838;28;20178;-69
2021/08/22 03:38:15;;;;;;;10.40;7.50;;;17.00;97.30;;;;;;4989603;28;20193;-69
2021/08/22 03:40:40;;;;;;;11.07;7.73;;;17.00;97.30;;;;;;4991119;28;20189;-69
2021/08/22 03:43:06;;;;;;;15.00;8.60;;;16.90;97.30;;;;;;4989444;28;20409;-70
2021/08/22 03:45:31;;;;;;;16.70;8.10;;;17.00;97.30;;;;;;4989774;28;20465;-69
2021/08/22 03:47:57;;;;;;;15.33;8.50;;;17.00;97.30;;;;;;4991089;28;20262;-69
2021/08/22 03:50:23;;;;;;;15.50;7.57;;;17.00;97.30;;;;;;4974859;28;20202;-68
2021/08/22 03:52:51;;;;;;;15.23;8.60;;;16.90;97.30;;;;;;5005953;28;20183;-69
2021/08/22 03:55:20;;;;;;;12.67;8.67;;;17.00;97.30;;;;;;4974895;28;20653;-69
2021/08/22 03:57:45;;;;;;;14.33;8.13;;;17.00;97.30;;;;;;4973440;28;20962;-68
2021/08/22 04:00:12;;;;;;;12.83;7.83;;;17.00;97.30;;;;;;4973404;28;20426;-69
2021/08/22 04:02:38;;;;;;;14.47;8.10;;;17.00;97.30;;;;;;4974797;28;20340;-68
2021/08/22 04:05:05;;;;;;;14.47;8.50;;;17.00;97.30;;;;;;4973778;28;20545;-69
2021/08/22 04:07:31;;;;;;;14.20;9.10;;;17.00;97.30;;;;;;4974793;28;20429;-69
2021/08/22 04:09:57;;;;;;;13.83;7.60;;;16.90;97.30;;;;;;4974326;28;20548;-69
2021/08/22 04:12:23;;;;;;;15.20;7.90;;;16.90;97.30;;;;;;4974553;28;20229;-69
2021/08/22 04:14:49;;;;;;;15.10;8.00;;;16.90;97.30;;;;;;4974558;28;20457;-68
2021/08/22 04:17:14;;;;;;;13.00;8.07;;;16.90;97.30;;;;;;4974266;28;20914;-69
2021/08/22 04:19:43;;;;;;;11.77;7.57;;;16.80;97.30;;;;;;4974436;28;20660;-70
2021/08/22 04:22:09;;;;;;;11.63;7.30;;;16.80;97.30;;;;;;4989356;28;20652;-68
2021/08/22 04:24:36;;;;;;;14.37;8.77;;;16.80;97.30;;;;;;4989486;28;20798;-69
2021/08/22 04:27:02;;;;;;;14.80;7.63;;;16.90;97.30;;;;;;4956663;28;20455;-68
2021/08/22 04:29:29;;;;;;;12.93;6.90;;;16.80;97.30;;;;;;4973828;28;20465;-69
2021/08/22 04:31:54;;;;;;;11.90;8.10;;;16.80;97.30;;;;;;4973942;28;20457;-69
2021/08/22 04:34:20;;;;;;;14.93;8.17;;;16.80;97.30;;;;;;4973893;28;20414;-69
2021/08/22 04:36:47;;;;;;;12.03;7.90;;;16.80;97.30;;;;;;4973735;28;20174;-69
2021/08/22 04:39:13;;;;;;;12.00;7.27;;;16.80;97.30;;;;;;4972193;28;20867;-70
2021/08/22 04:41:42;;;;;;;16.37;8.10;;;16.80;97.30;;;;;;4972313;28;20594;-70
2021/08/22 04:44:07;;;;;;;11.43;7.30;;;16.80;97.30;;;;;;4960803;28;20477;-70
2021/08/22 04:46:33;;;;;;;16.90;7.50;;;16.80;97.30;;;;;;4984925;28;20422;-70
2021/08/22 04:48:58;;;;;;;14.20;7.60;;;16.80;97.30;;;;;;4966506;28;20202;-71
2021/08/22 04:51:24;;;;;;;15.30;8.57;;;16.80;97.30;;;;;;4965394;28;20178;-70
2021/08/22 04:53:50;;;;;;;12.60;8.40;;;16.80;97.30;;;;;;4964442;28;20182;-70
2021/08/22 04:56:15;;;;;;;12.50;7.63;;;16.80;97.30;;;;;;4984477;28;20260;-70
2021/08/22 04:58:41;;;;;;;11.63;7.40;;;16.80;97.30;;;;;;4968582;28;20237;-70
2021/08/22 05:01:06;;;;;;;13.10;7.50;;;16.80;97.30;;;;;;4975438;28;20182;-69
2021/08/22 05:03:32;;;;;;;11.30;7.30;;;16.90;97.30;;;;;;4975604;28;20221;-69
2021/08/22 05:05:57;;;;;;;12.50;7.70;;;16.90;97.30;;;;;;4992919;28;20269;-69
2021/08/22 05:08:23;;;;;;;16.37;8.43;;;16.90;97.30;;;;;;4992475;28;20202;-70
2021/08/22 05:10:49;;;;;;;11.37;7.43;;;16.90;97.30;;;;;;4992268;28;20267;-69
2021/08/22 05:13:16;;;;;;;12.20;7.50;;;16.90;97.30;;;;;;4992304;28;20202;-70
2021/08/22 05:15:41;;;;;;;12.40;8.13;;;17.00;97.30;;;;;;4983553;28;20500;-70
2021/08/22 05:18:07;;;;;;;13.53;7.40;;;17.00;97.30;;;;;;4991378;28;20978;-70
2021/08/22 05:20:33;;;;;;;13.47;7.07;;;17.00;97.30;;;;;;4990379;28;20607;-70
2021/08/22 05:22:58;;;;;;;13.80;7.90;;;17.10;97.30;;;;;;4990091;28;20234;-70
2021/08/22 05:25:24;;;;;;;10.17;6.70;;;17.20;97.30;;;;;;4991975;28;20182;-71
2021/08/22 05:27:50;;;;;;;11.50;6.97;;;17.20;97.30;;;;;;4989946;28;20178;-69
2021/08/22 05:30:15;;;;;;;13.20;8.20;;;17.30;97.30;;;;;;4992338;28;20273;-70
2021/08/22 05:32:41;;;;;;;12.77;7.27;;;17.40;97.30;;;;;;4981398;28;20629;-74
2021/08/22 05:35:07;;;;;;;12.37;7.20;;;17.40;97.30;;;;;;4972663;28;20651;-72
2021/08/22 05:37:32;;;;;;;11.90;7.53;;;17.40;97.30;;;;;;4973316;28;20278;-72
2021/08/22 05:39:58;;;;;;;16.10;7.10;;;17.40;97.30;;;;;;4972165;28;20209;-72
2021/08/22 05:42:23;;;;;;;10.67;7.13;;;17.50;97.30;;;;;;4971114;28;20190;-72
2021/08/22 05:44:49;;;;;;;11.50;6.93;;;17.50;97.30;;;;;;4971620;28;20214;-72
2021/08/22 05:47:21;;;;;;;11.80;7.20;;;17.60;97.30;;;;;;4972934;28;20190;-72
2021/08/22 05:49:48;;;;;;;12.17;7.97;;;17.60;97.30;;;;;;4972469;28;20202;-72
2021/08/22 05:52:13;;;;;;;10.60;7.00;;;17.70;97.30;;;;;;4972572;28;20417;-72
2021/08/22 05:54:39;;;;;;;11.10;6.77;;;17.70;97.30;;;;;;4971670;28;20426;-71
2021/08/22 05:57:05;;;;;;;16.23;6.87;;;17.80;97.30;;;;;;4972926;28;20185;-72
2021/08/22 05:59:33;;;;;;;9.30;6.63;;;17.80;97.30;;;;;;4971657;28;20216;-72
2021/08/22 06:01:59;;;;;;;10.77;6.93;;;17.90;97.30;;;;;;4972576;28;20472;-72
2021/08/22 06:04:24;;;;;;;10.30;7.00;;;18.00;97.30;;;;;;4974233;28;20830;-72
2021/08/22 06:06:50;;;;;;;10.87;6.80;;;18.00;97.30;;;;;;4980845;28;20476;-71
2021/08/22 06:09:16;;;;;;;9.87;6.83;;;18.10;97.30;;;;;;4978835;28;20261;-72
2021/08/22 06:11:41;;;;;;;10.57;7.00;;;18.20;97.30;;;;;;4982324;28;20672;-72
2021/08/22 06:14:07;;;;;;;10.43;6.30;;;18.30;97.30;;;;;;4979395;28;20234;-72
2021/08/22 06:16:32;;;;;;;11.93;6.17;;;18.40;97.30;;;;;;4979782;28;20217;-73
2021/08/22 06:18:59;;;;;;;11.13;6.80;;;18.50;97.30;;;;;;4979529;28;20201;-72
2021/08/22 06:21:25;;;;;;;12.57;6.67;;;18.60;97.30;;;;;;4998764;23;20184;-71
2021/08/22 06:23:51;;;;;;;9.10;5.80;;;18.70;97.30;;;;;;4967013;28;20461;-71
2021/08/22 06:26:17;;;;;;;8.20;5.90;;;18.80;97.30;;;;;;4962265;28;20497;-71
2021/08/22 06:28:42;;;;;;;7.57;5.53;;;18.90;97.30;;;;;;4981335;28;20528;-71
2021/08/22 06:31:08;;;;;;;13.03;5.20;;;19.10;97.30;;;;;;4965545;28;20189;-71
2021/08/22 06:33:33;;;;;;;10.63;6.53;;;19.10;97.30;;;;;;4963562;28;20174;-71
2021/08/22 06:36:00;;;;;;;9.53;5.63;;;19.20;97.30;;;;;;4958574;28;20278;-71
2021/08/22 06:38:26;;;;;;;8.57;5.53;;;19.30;97.30;;;;;;4962819;28;20569;-71
2021/08/22 06:40:52;;;;;;;9.03;5.70;;;19.30;97.30;;;;;;4980606;28;20479;-71
2021/08/22 06:43:17;;;;;;;10.23;5.97;;;19.30;97.30;;;;;;4964318;28;20167;-71
2021/08/22 06:45:43;;;;;;;11.53;6.70;;;19.40;97.30;;;;;;4962318;28;20174;-71
2021/08/22 06:48:11;;;;;;;11.73;5.87;;;19.40;97.30;;;;;;4983877;28;20201;-71
2021/08/22 06:50:37;;;;;;;8.50;5.70;;;19.40;97.30;;;;;;4962290;28;20201;-71
2021/08/22 06:53:03;;;;;;;8.37;5.77;;;19.40;97.30;;;;;;4962056;28;20508;-71
2021/08/22 06:55:29;;;;;;;9.07;5.93;;;19.40;97.30;;;;;;4979617;28;20401;-71
2021/08/22 06:57:54;;;;;;;9.33;6.40;;;19.40;97.30;;;;;;4954527;28;20497;-71
2021/08/22 07:00:20;;;;;;;9.57;6.50;;;19.40;97.30;;;;;;4963648;28;20232;-71
2021/08/22 07:02:46;;;;;;;11.43;6.63;;;19.40;97.30;;;;;;4965583;28;20262;-72
2021/08/22 07:05:12;;;;;;;10.40;6.30;;;19.40;97.30;;;;;;4962662;28;20178;-72
2021/08/22 07:07:39;;;;;;;13.53;6.80;;;19.40;97.30;;;;;;4963874;28;20229;-71
2021/08/22 07:10:05;;;;;;;8.27;5.53;;;19.40;97.30;;;;;;4979944;28;20493;-73
2021/08/22 07:12:31;;;;;;;8.43;5.77;;;19.40;97.30;;;;;;4981699;28;20405;-71
2021/08/22 07:14:56;;;;;;;10.60;6.03;;;19.40;97.30;;;;;;4964874;28;20413;-71
2021/08/22 07:17:22;;;;;;;8.97;5.73;;;19.50;97.30;;;;;;4967521;28;20220;-71
2021/08/22 07:19:48;;;;;;;10.77;6.20;;;19.50;97.30;;;;;;4979862;28;20211;-69
2021/08/22 07:22:15;;;;;;;9.13;6.20;;;19.40;97.30;;;;;;4977815;28;20222;-71
2021/08/22 07:24:41;;;;;;;11.50;6.57;;;19.50;97.30;;;;;;4965235;28;20516;-71
2021/08/22 07:27:07;;;;;;;12.03;6.47;;;19.50;97.30;;;;;;4975374;28;20476;-69
2021/08/22 07:29:32;;;;;;;12.23;5.60;;;19.60;97.30;;;;;;4957634;28;20218;-70
2021/08/22 07:31:58;;;;;;;9.83;6.10;;;19.60;97.30;;;;;;4957602;28;20214;-71
2021/08/22 07:34:24;;;;;;;9.80;5.83;;;19.70;97.30;;;;;;4975205;28;20265;-70
2021/08/22 07:36:49;;;;;;;8.07;5.83;;;19.70;97.30;;;;;;4974837;28;20613;-70
2021/08/22 07:39:15;;;;;;;9.17;5.80;;;19.80;97.30;;;;;;4957664;28;20194;-69
2021/08/22 07:41:40;;;;;;;12.80;5.67;;;19.80;97.30;;;;;;4975074;28;20633;-69
2021/08/22 07:44:06;;;;;;;8.63;6.00;;;19.90;97.30;;;;;;4957620;28;20171;-70
2021/08/22 07:46:32;;;;;;;10.50;5.97;;;19.90;97.30;;;;;;4974906;28;20258;-71
2021/08/22 07:48:58;;;;;;;9.23;6.30;;;20.00;97.30;;;;;;4986150;28;20197;-71
2021/08/22 07:51:24;;;;;;;11.93;6.70;;;20.00;97.30;;;;;;4994497;28;20463;-70
2021/08/22 07:53:50;;;;;;;9.20;6.17;;;20.10;97.30;;;;;;4993987;28;20413;-72
2021/08/22 07:56:15;;;;;;;8.70;6.03;;;20.20;97.30;;;;;;4994309;28;20599;-71
2021/08/22 07:58:41;;;;;;;11.80;6.70;;;20.20;97.30;;;;;;4994209;28;20200;-72
2021/08/22 08:01:07;;;;;;;10.37;6.70;;;20.30;97.30;;;;;;4976756;28;20231;-72
2021/08/22 08:03:32;;;;;;;8.90;5.67;;;20.30;97.30;;;;;;4994011;28;20170;-72
2021/08/22 08:05:58;;;;;;;9.63;6.00;;;20.40;97.30;;;;;;4976931;28;20656;-72
2021/08/22 08:08:24;;;;;;;6.53;4.83;;;20.40;97.30;;;;;;4976528;28;20198;-72
2021/08/22 08:10:50;;;;;;;8.13;5.63;;;20.40;97.30;;;;;;4993826;28;20213;-70
2021/08/22 08:13:16;;;;;;;12.50;6.57;;;20.40;97.30;;;;;;4976542;28;20205;-73
2021/08/22 08:15:42;;;;;;;10.57;6.87;;;20.50;97.30;;;;;;4976308;28;20992;-71
2021/08/22 08:18:07;;;;;;;8.23;5.93;;;20.50;97.30;;;;;;4994126;28;20558;-72
2021/08/22 08:20:33;;;;;;;11.17;6.33;;;20.50;97.30;;;;;;4986520;28;20410;-72
2021/08/22 08:22:58;;;;;;;11.23;6.30;;;20.50;97.30;;;;;;4976413;28;20218;-72
2021/08/22 08:25:24;;;;;;;7.70;5.90;;;20.50;97.30;;;;;;4981513;28;20232;-72
2021/08/22 08:27:50;;;;;;;10.10;6.13;;;20.50;97.30;;;;;;4983499;28;20173;-72
2021/08/22 08:30:16;;;;;;;7.07;5.20;;;20.50;97.30;;;;;;4981955;28;20239;-72
2021/08/22 08:32:42;;;;;;;10.80;6.00;;;20.50;97.30;;;;;;4980527;28;20453;-71
2021/08/22 08:35:10;;;;;;;9.77;6.63;;;20.50;97.30;;;;;;4984729;28;20197;-72
2021/08/22 08:37:36;;;;;;;8.40;5.80;;;20.50;97.30;;;;;;4984992;28;20171;-72
2021/08/22 08:40:03;;;;;;;13.20;6.40;;;20.50;97.30;;;;;;4982883;28;20480;-72
2021/08/22 08:42:48;;;;;;;10.20;6.37;;;20.50;97.30;;;;;;4975465;28;20372;-73
2021/08/22 08:45:46;;;;;;;10.03;6.97;;;20.60;97.30;;;;;;4991572;28;20429;-73
2021/08/22 08:48:33;;;;;;;12.23;6.93;;;20.60;97.30;;;;;;4985773;28;20658;-71
2021/08/22 08:51:10;;;;;;;15.60;6.60;;;20.60;97.30;;;;;;4971174;28;20556;-71
2021/08/22 08:54:08;;;;;;;12.50;6.40;;;20.70;97.30;;;;;;4973213;28;20900;-72
2021/08/22 08:56:54;;;;;;;13.27;7.27;;;20.80;97.30;;;;;;4969553;28;20524;-72
2021/08/22 08:59:20;;;;;;;11.97;7.20;;;20.80;97.30;;;;;;4971915;28;20445;-73
2021/08/22 09:01:45;;;;;;;13.33;7.37;;;20.90;97.30;;;;;;4973650;28;20857;-73
2021/08/22 09:04:26;;;;;;;11.57;6.70;;;20.90;97.30;;;;;;4973231;28;20547;-71
2021/08/22 09:07:17;;;;;;;15.57;6.83;;;21.00;97.30;;;;;;4973766;28;20175;-70
2021/08/22 09:10:20;;;;;;;10.43;7.40;;;21.00;97.30;;;;;;4973251;28;20524;-73
2021/08/22 09:13:23;;;;;;;11.57;7.20;;;21.10;97.30;;;;;;4973312;28;20410;-73
2021/08/22 09:16:20;;;;;;;11.20;7.27;;;21.20;97.30;;;;;;4973407;28;20441;-70
2021/08/22 09:19:22;;;;;;;10.57;6.87;;;21.30;97.30;;;;;;4973283;28;20445;-72
2021/08/22 09:22:25;;;;;;;10.77;7.63;;;21.30;97.30;;;;;;4973009;28;20464;-73
2021/08/22 09:25:26;;;;;;;11.20;7.27;;;21.40;97.30;;;;;;4973137;28;20402;-73
2021/08/22 09:27:51;;;;;;;9.90;6.17;;;21.50;97.30;;;;;;4973198;28;20510;-72
2021/08/22 09:31:11;;;;;;;10.47;7.00;;;21.50;97.30;;;;;;4955751;28;20553;-72
2021/08/22 09:34:14;;;;;;;11.40;6.30;;;21.60;97.30;;;;;;4897339;29;20260;-73
2021/08/22 09:37:12;;;;;;;13.70;6.77;;;21.60;97.30;;;;;;4955785;28;20436;-72
2021/08/22 09:40:15;;;;;;;8.83;6.30;;;21.60;97.30;;;;;;4973036;28;20484;-73
2021/08/22 09:43:00;;;;;;;7.43;4.40;;;21.70;97.30;;;;;;4972669;28;20410;-73
2021/08/22 09:46:10;;;;;;;7.13;4.93;;;21.70;97.30;;;;;;4955238;28;20420;-73
2021/08/22 09:49:18;;;;;;;7.40;5.40;;;21.90;97.30;;;;;;4980883;28;20448;-73
2021/08/22 09:52:21;;;;;;;9.77;5.20;;;22.20;97.30;;;;;;4991937;28;20417;-74
2021/08/22 09:55:33;;;;;;;8.87;5.13;;;22.60;97.30;;;;;;4992316;28;20898;-74
2021/08/22 09:58:23;;;;;;;8.90;4.60;;;22.80;97.30;;;;;;4991967;28;20455;-72
2021/08/22 10:01:12;;;;;;;7.53;5.17;;;22.90;97.10;;;;;;4991846;28;20488;-73
2021/08/22 10:04:02;;;;;;;9.30;4.80;;;22.90;97.30;;;;;;4992044;28;20492;-72
2021/08/22 10:06:31;;;;;;;7.40;5.00;;;22.80;97.30;;;;;;4992108;28;20416;-72
2021/08/22 10:09:19;;;;;;;7.50;5.13;;;22.80;97.20;;;;;;4991643;28;20472;-74
2021/08/22 10:12:05;;;;;;;10.60;5.40;;;22.70;97.20;;;;;;4991954;28;21008;-72
2021/08/22 10:14:31;;;;;;;15.87;6.37;;;22.60;97.30;;;;;;4973812;28;20409;-72
2021/08/22 10:16:57;;;;;;;8.60;5.30;;;22.50;97.30;;;;;;4974464;28;20409;-73
2021/08/22 10:19:27;;;;;;;6.00;4.80;;;22.50;97.30;;;;;;4975009;28;20488;-76
2021/08/22 10:22:18;;;;;;;8.50;4.80;;;22.40;97.30;;;;;;4975654;28;20456;-77
2021/08/22 10:24:57;;;;;;;8.60;4.60;;;22.30;97.30;;;;;;4991199;28;20429;-76
2021/08/22 10:27:35;;;;;;;7.77;4.17;;;22.20;97.30;;;;;;4991323;28;20416;-76
2021/08/22 10:30:04;;;;;;;5.87;4.60;;;22.20;97.30;;;;;;4985923;28;20457;-76
2021/08/22 10:32:33;;;;;;;6.80;4.80;;;22.10;97.30;;;;;;4978523;28;20426;-76
2021/08/22 10:35:12;;;;;;;6.90;4.17;;;22.20;97.30;;;;;;4987575;28;20914;-76
2021/08/22 10:37:41;;;;;;;6.40;4.13;;;22.20;97.30;;;;;;4983141;28;20417;-75
2021/08/22 10:40:24;;;;;;;7.77;4.83;;;22.30;97.30;;;;;;4977834;28;20946;-76
2021/08/22 10:42:56;;;;;;;6.70;5.40;;;22.30;97.30;;;;;;4992391;28;20427;-76
2021/08/22 10:45:40;;;;;;;6.93;4.67;;;22.30;97.30;;;;;;4988306;28;20407;-76
2021/08/22 10:48:09;;;;;;;8.97;3.97;;;22.30;97.30;;;;;;4979691;28;20528;-76
2021/08/22 10:51:08;;;;;;;7.20;3.93;;;22.40;97.30;;;;;;4983523;28;20493;-77
2021/08/22 10:53:39;;;;;;;7.00;4.77;;;22.40;97.30;;;;;;4935255;28;20471;-76
2021/08/22 10:56:23;;;;;;;7.87;4.50;;;22.50;96.80;;;;;;4987684;28;20421;-76
2021/08/22 10:58:58;;;;;;;6.20;4.00;;;22.50;96.90;;;;;;4977048;28;20449;-77
2021/08/22 11:01:43;;;;;;;6.60;3.83;;;22.50;96.90;;;;;;4995327;28;20416;-76
2021/08/22 11:04:15;;;;;;;7.03;4.00;;;22.50;96.00;;;;;;4986169;28;20497;-76
2021/08/22 11:07:03;;;;;;;6.17;3.90;;;22.60;96.00;;;;;;4990218;28;20422;-77
2021/08/22 11:09:43;;;;;;;5.17;3.73;;;22.60;96.00;;;;;;4985813;28;21092;-76
2021/08/22 11:12:38;;;;;;;5.47;4.20;;;22.60;95.90;;;;;;4980691;28;20496;-77
2021/08/22 11:15:05;;;;;;;9.70;4.70;;;22.70;95.50;;;;;;4974625;28;20935;-76
2021/08/22 11:17:31;;;;;;;8.90;4.17;;;22.80;95.70;;;;;;4985761;28;20421;-76
2021/08/22 11:20:14;;;;;;;6.07;4.13;;;22.80;95.80;;;;;;4978095;28;20529;-76
2021/08/22 11:22:40;;;;;;;7.07;3.97;;;23.00;96.00;;;;;;4987227;28;20986;-76
2021/08/22 11:25:07;;;;;;;4.80;3.57;;;23.00;96.60;;;;;;4987621;28;20452;-76
2021/08/22 11:27:33;;;;;;;6.17;3.90;;;23.10;95.40;;;;;;4985447;28;20460;-76
2021/08/22 11:30:00;;;;;;;6.23;4.20;;;23.20;96.20;;;;;;4982415;28;20461;-76
2021/08/22 11:32:27;;;;;;;5.20;3.57;;;23.30;95.50;;;;;;4977481;28;20641;-76
2021/08/22 11:34:53;;;;;;;6.93;4.00;;;23.30;95.70;;;;;;4986340;28;20422;-75
2021/08/22 11:37:21;;;;;;;4.77;3.47;;;23.30;95.90;;;;;;4982735;28;21073;-76
2021/08/22 11:39:47;;;;;;;4.37;3.80;;;23.40;94.90;;;;;;4987863;28;20931;-75
2021/08/22 11:42:19;;;;;;;5.83;3.97;;;23.40;95.50;;;;;;4978718;28;20423;-76
2021/08/22 11:44:45;;;;;;;6.70;4.00;;;23.40;95.00;;;;;;4994120;28;20539;-75
2021/08/22 11:47:11;;;;;;;8.00;4.30;;;23.40;94.90;;;;;;4994115;28;20516;-76
2021/08/22 11:49:37;;;;;;;5.93;3.33;;;23.50;94.70;;;;;;4993688;28;20272;-76
2021/08/22 11:52:03;;;;;;;11.70;4.67;;;23.60;95.10;;;;;;4985068;28;20659;-76
2021/08/22 11:54:32;;;;;;;6.77;4.03;;;23.60;94.70;;;;;;4974527;28;20422;-76
2021/08/22 11:57:17;;;;;;;6.37;3.80;;;23.60;94.30;;;;;;4974379;28;20418;-75
2021/08/22 11:59:42;;;;;;;7.67;4.97;;;23.60;93.90;;;;;;4974247;28;20445;-76
2021/08/22 12:02:22;;;;;;;6.27;4.53;;;23.60;94.10;;;;;;4974080;28;20430;-76
2021/08/22 12:05:08;;;;;;;5.70;3.30;;;23.70;94.40;;;;;;4975449;28;20174;-75
2021/08/22 12:07:33;;;;;;;4.53;3.97;;;23.70;94.20;;;;;;4974227;28;20863;-76
2021/08/22 12:09:59;;;;;;;6.67;3.90;;;23.70;93.50;;;;;;4975323;28;20545;-75
2021/08/22 12:12:25;;;;;;;7.33;4.30;;;23.70;94.20;;;;;;4975416;28;20237;-75
2021/08/22 12:14:50;;;;;;;5.03;3.83;;;23.80;95.00;;;;;;4974212;28;20210;-75
2021/08/22 12:17:23;;;;;;;8.07;3.90;;;23.80;93.10;;;;;;4974991;28;20175;-75
2021/08/22 12:19:48;;;;;;;5.33;3.60;;;23.80;94.40;;;;;;4973823;28;20205;-74
2021/08/22 12:22:14;;;;;;;6.40;4.37;;;23.90;92.90;;;;;;4973589;28;20462;-75
2021/08/22 12:24:47;;;;;;;6.97;3.93;;;23.90;93.30;;;;;;4973745;28;20527;-75
2021/08/22 12:27:26;;;;;;;5.40;3.30;;;23.90;93.30;;;;;;4973555;28;20190;-76
2021/08/22 12:30:11;;;;;;;5.37;3.63;;;23.90;92.50;;;;;;4974984;28;20462;-75
2021/08/22 12:32:37;;;;;;;5.43;3.93;;;23.90;92.40;;;;;;4954373;29;20455;-75
2021/08/22 12:35:05;;;;;;;5.07;3.40;;;23.80;92.10;;;;;;4955645;28;20411;-75
2021/08/22 12:37:31;;;;;;;5.30;3.90;;;23.80;92.80;;;;;;4969124;28;20499;-75
2021/08/22 12:39:58;;;;;;;5.43;3.27;;;23.80;93.50;;;;;;4973388;28;20967;-75
2021/08/22 12:42:23;;;;;;;8.17;3.77;;;23.80;93.10;;;;;;4975117;28;20258;-75
2021/08/22 12:44:49;;;;;;;5.80;3.87;;;23.80;93.30;;;;;;4974698;28;20541;-76
2021/08/22 12:47:14;;;;;;;7.37;4.07;;;23.80;93.30;;;;;;4973436;28;20651;-76
2021/08/22 12:49:40;;;;;;;5.40;3.90;;;23.80;93.60;;;;;;4974651;28;20210;-76
2021/08/22 12:52:09;;;;;;;5.57;3.93;;;23.70;92.80;;;;;;4974500;28;20174;-75
2021/08/22 12:54:36;;;;;;;5.30;3.90;;;23.70;93.00;;;;;;4974556;28;20295;-76
2021/08/22 12:57:02;;;;;;;10.63;3.93;;;23.70;93.70;;;;;;4973160;28;20923;-75